San Jacinto, Nevada
Current Conditions -  °F | °C
As of 7:53 AM on Friday 24 Oct 2014 (Local Time) from KTWF Reporting Station
Scattered Clouds Scattered Clouds  
Wind Chill: 50°   Ceiling: Unl
Heat Index: 50°   Visibility: 10mi
Dew Point: 39°   Wind: 5mph
Humidity: 66%   Direction: 150°SSE
Pressure: 30.11"   Gusts: NA
Location:  41.8136°N, 115.084°W
Report Text: KTWF 241453Z 15004KT 10SM SCT090 10/04 A3011 RMK AO2 SLP165 T01000039 55002
Loading
Personal Weather Stations






























Interactive Weather Map
Tropical Storm Tracking
New forecast layout! Learn more

10-Day Weather Forecast

Advertisements
Track Severe Weather on mobile